Time;durP1;ratioP1;P1;durP2;ratioP2;P2;SDS_P1;SDS_P2;PMS_P1;PMS_P2;Temp;Humidity;BMP_temperature;BMP_pressure;BME280_temperature;BME280_humidity;BME280_pressure;Samples;Min_cycle;Max_cycle;Signal;HPM_P1;HPM_P2
2022/07/04 00:02:03;;;;;;;2.60;2.40;;;21.60;99.90;;;;;;7379500;19;20349;-78
2022/07/04 00:04:28;;;;;;;3.20;2.90;;;21.60;99.90;;;;;;7378219;19;20929;-76
2022/07/04 00:06:54;;;;;;;2.90;2.70;;;21.60;99.90;;;;;;7375433;19;20341;-75
2022/07/04 00:09:19;;;;;;;3.55;3.25;;;21.50;99.90;;;;;;7381499;19;20328;-77
2022/07/04 00:11:45;;;;;;;2.70;2.50;;;21.40;99.90;;;;;;7378953;19;20323;-78
2022/07/04 00:14:10;;;;;;;2.87;2.67;;;21.30;99.90;;;;;;7379657;19;20320;-77
2022/07/04 00:16:36;;;;;;;2.90;2.70;;;21.30;99.90;;;;;;7376600;19;20313;-79
2022/07/04 00:19:01;;;;;;;3.10;2.83;;;21.30;99.90;;;;;;7379747;19;20859;-79
2022/07/04 00:21:27;;;;;;;4.93;2.70;;;21.30;99.90;;;;;;7379001;19;20463;-74
2022/07/04 00:23:53;;;;;;;2.63;2.43;;;21.20;99.90;;;;;;7380847;19;20433;-79
2022/07/04 00:26:18;;;;;;;3.28;3.00;;;21.20;99.90;;;;;;7376063;19;20320;-79
2022/07/04 00:28:44;;;;;;;3.30;3.10;;;21.10;99.90;;;;;;7378104;19;20983;-75
2022/07/04 00:31:09;;;;;;;2.70;2.50;;;21.00;99.90;;;;;;7379668;19;20336;-80
2022/07/04 00:33:35;;;;;;;3.37;3.17;;;20.80;99.90;;;;;;7378382;19;20403;-80
2022/07/04 00:36:00;;;;;;;3.53;3.30;;;20.60;99.90;;;;;;7377102;19;20846;-75
2022/07/04 00:38:26;;;;;;;4.10;3.17;;;20.50;99.90;;;;;;7378793;19;20447;-77
2022/07/04 00:40:51;;;;;;;3.80;3.50;;;20.50;99.90;;;;;;7376686;19;21281;-75
2022/07/04 00:43:24;;;;;;;3.40;3.10;;;20.20;99.90;;;;;;7379203;19;20320;-76
2022/07/04 00:45:49;;;;;;;3.70;3.40;;;20.20;99.90;;;;;;7375198;19;20352;-74
2022/07/04 00:48:18;;;;;;;3.22;3.03;;;20.20;99.90;;;;;;7378628;19;20328;-73
2022/07/04 00:50:45;;;;;;;3.13;2.83;;;20.20;99.90;;;;;;7378440;19;20388;-73
2022/07/04 00:53:10;;;;;;;3.47;3.17;;;20.20;99.90;;;;;;7378906;19;20300;-77
2022/07/04 00:55:36;;;;;;;2.83;2.63;;;20.20;99.90;;;;;;7374808;19;20331;-73
2022/07/04 00:58:01;;;;;;;4.07;3.67;;;20.30;99.90;;;;;;7379518;19;20333;-76
2022/07/04 01:00:27;;;;;;;3.90;3.60;;;20.00;99.90;;;;;;7377422;19;20341;-75
2022/07/04 01:02:53;;;;;;;3.30;3.00;;;19.90;99.90;;;;;;7376753;19;20352;-76
2022/07/04 01:05:19;;;;;;;3.47;3.17;;;19.90;99.90;;;;;;7374610;19;20357;-73
2022/07/04 01:07:44;;;;;;;4.00;3.70;;;20.00;99.90;;;;;;7379345;19;20363;-79
2022/07/04 01:10:10;;;;;;;3.03;2.83;;;19.80;99.90;;;;;;7379569;19;20783;-77
2022/07/04 01:12:36;;;;;;;3.20;2.95;;;19.80;99.90;;;;;;7377686;19;20321;-74
2022/07/04 01:15:02;;;;;;;3.43;3.13;;;19.80;99.90;;;;;;7373514;19;20340;-76
2022/07/04 01:17:27;;;;;;;3.55;3.08;;;19.70;99.90;;;;;;7377678;19;20345;-76
2022/07/04 01:19:53;;;;;;;3.10;2.90;;;19.70;99.90;;;;;;7378438;19;20339;-75
2022/07/04 01:22:19;;;;;;;3.20;3.00;;;19.70;99.90;;;;;;7376754;19;20321;-73
2022/07/04 01:24:45;;;;;;;3.67;3.37;;;19.60;99.90;;;;;;7375072;19;20349;-74
2022/07/04 01:27:10;;;;;;;3.60;3.30;;;19.60;99.90;;;;;;7376058;19;20325;-74
2022/07/04 01:29:36;;;;;;;3.40;3.17;;;19.60;99.90;;;;;;7378275;19;20884;-77
2022/07/04 01:32:05;;;;;;;3.80;3.50;;;19.60;99.90;;;;;;7376872;19;20434;-73
2022/07/04 01:34:31;;;;;;;3.03;2.83;;;19.60;99.90;;;;;;7374863;19;20363;-76
2022/07/04 01:36:58;;;;;;;3.00;2.73;;;19.50;99.90;;;;;;7373996;19;20340;-75
2022/07/04 01:39:24;;;;;;;3.30;3.00;;;19.50;99.90;;;;;;7378738;19;20356;-79
2022/07/04 01:41:49;;;;;;;3.23;2.97;;;19.50;99.90;;;;;;7373683;19;20348;-76
2022/07/04 01:44:15;;;;;;;3.20;3.00;;;19.50;99.90;;;;;;7381043;19;20343;-74
2022/07/04 01:46:40;;;;;;;3.22;2.95;;;19.50;99.90;;;;;;7372852;19;20920;-79
2022/07/04 01:49:06;;;;;;;3.20;3.00;;;19.40;99.90;;;;;;7378071;19;20428;-78
2022/07/04 01:51:32;;;;;;;3.57;3.27;;;19.40;99.90;;;;;;7377140;19;20333;-73
2022/07/04 01:53:57;;;;;;;3.42;3.13;;;19.40;99.90;;;;;;7378814;19;20340;-73
2022/07/04 01:56:23;;;;;;;3.43;3.13;;;19.30;99.90;;;;;;7373186;19;20308;-76
2022/07/04 01:58:48;;;;;;;3.70;3.40;;;19.40;99.90;;;;;;7378766;19;20333;-76
2022/07/04 02:01:32;;;;;;;3.95;3.65;;;19.30;99.90;;;;;;7375966;19;20313;-76
2022/07/04 02:03:58;;;;;;;3.85;3.55;;;19.10;99.90;;;;;;7270256;19;2004442;-73
2022/07/04 02:06:24;;;;;;;4.25;3.45;;;18.90;99.90;;;;;;7374923;19;20350;-76
2022/07/04 02:14:18;;;;;;;3.40;3.10;;;18.90;99.90;;;;;;7272848;19;2004414;-74
2022/07/04 02:16:44;;;;;;;3.33;3.03;;;18.90;99.90;;;;;;7374615;19;20327;-74
2022/07/04 02:19:09;;;;;;;3.90;3.50;;;18.90;99.90;;;;;;7377055;19;20319;-76
2022/07/04 02:21:35;;;;;;;3.47;3.17;;;18.90;99.90;;;;;;7375828;19;20356;-73
2022/07/04 02:24:01;;;;;;;3.30;3.00;;;18.90;99.90;;;;;;7368258;19;20875;-77
2022/07/04 02:26:26;;;;;;;3.10;2.90;;;18.90;99.90;;;;;;7374589;19;20361;-76
2022/07/04 02:28:52;;;;;;;3.50;3.20;;;18.90;99.90;;;;;;7377102;19;21007;-78
2022/07/04 02:31:17;;;;;;;3.42;3.13;;;18.90;99.90;;;;;;7374580;19;20373;-73
2022/07/04 02:33:43;;;;;;;3.53;3.23;;;18.80;99.90;;;;;;7373876;19;20312;-73
2022/07/04 02:36:09;;;;;;;3.65;3.35;;;18.70;99.90;;;;;;7373780;19;20326;-74
2022/07/04 02:38:34;;;;;;;3.70;3.40;;;18.60;99.90;;;;;;7376892;19;20312;-75
2022/07/04 02:41:00;;;;;;;4.30;4.00;;;18.50;99.90;;;;;;7374276;19;20345;-78
2022/07/04 02:43:25;;;;;;;3.70;3.40;;;18.50;99.90;;;;;;7368228;19;20340;-73
2022/07/04 02:45:51;;;;;;;3.70;3.40;;;18.40;99.90;;;;;;7374610;19;20797;-74
2022/07/04 02:48:16;;;;;;;3.83;3.53;;;18.40;99.90;;;;;;7375830;19;20607;-76
2022/07/04 02:50:42;;;;;;;3.65;3.35;;;18.40;99.90;;;;;;7373671;19;21191;-73
2022/07/04 02:53:07;;;;;;;3.50;3.20;;;18.30;99.90;;;;;;7376994;19;20325;-74
2022/07/04 02:55:33;;;;;;;3.57;3.10;;;18.30;99.90;;;;;;7380931;19;20356;-74
2022/07/04 02:57:59;;;;;;;3.47;3.27;;;18.30;99.90;;;;;;7381284;19;20976;-72
2022/07/04 03:00:24;;;;;;;3.10;2.90;;;18.30;99.90;;;;;;7381300;19;20371;-74
2022/07/04 03:02:50;;;;;;;3.63;3.33;;;18.30;99.90;;;;;;7376175;19;20353;-73
2022/07/04 03:05:15;;;;;;;4.35;3.88;;;18.30;99.90;;;;;;7380290;19;20315;-74
2022/07/04 03:07:41;;;;;;;3.60;3.30;;;18.20;99.90;;;;;;7383056;19;20316;-73
2022/07/04 03:10:07;;;;;;;3.67;3.37;;;18.20;99.90;;;;;;7382057;19;20578;-73
2022/07/04 03:12:32;;;;;;;3.50;3.20;;;18.20;99.90;;;;;;7378832;19;20345;-75
2022/07/04 03:14:59;;;;;;;3.30;3.10;;;18.10;99.90;;;;;;7381374;19;20348;-74
2022/07/04 03:17:25;;;;;;;3.92;3.63;;;18.20;99.90;;;;;;7380705;19;20866;-74
2022/07/04 03:19:50;;;;;;;3.53;3.33;;;18.10;99.90;;;;;;7382446;19;20313;-73
2022/07/04 03:22:16;;;;;;;3.83;3.53;;;18.10;99.90;;;;;;7381766;19;20323;-73
2022/07/04 03:24:41;;;;;;;4.38;3.53;;;18.10;99.90;;;;;;7376121;19;20718;-74
2022/07/04 03:27:07;;;;;;;4.07;3.43;;;18.00;99.90;;;;;;7377693;19;20366;-73
2022/07/04 03:29:33;;;;;;;3.93;3.63;;;18.10;99.90;;;;;;7383165;19;20348;-73
2022/07/04 03:31:58;;;;;;;4.10;3.80;;;18.10;99.90;;;;;;7376867;19;20355;-75
2022/07/04 03:34:24;;;;;;;3.50;3.20;;;18.10;99.90;;;;;;7378432;19;20347;-74
2022/07/04 03:36:49;;;;;;;3.73;3.43;;;18.20;99.90;;;;;;7381160;19;20340;-73
2022/07/04 03:39:15;;;;;;;4.10;3.70;;;18.20;99.90;;;;;;7381165;19;20305;-73
2022/07/04 03:41:40;;;;;;;3.60;3.30;;;18.30;99.90;;;;;;7379296;19;20379;-76
2022/07/04 03:44:06;;;;;;;3.23;3.03;;;18.40;99.90;;;;;;7377991;19;20367;-73
2022/07/04 03:46:31;;;;;;;3.45;3.15;;;18.50;99.90;;;;;;7378222;19;20341;-74
2022/07/04 03:48:57;;;;;;;3.75;3.45;;;18.50;99.90;;;;;;7364241;19;20864;-73
2022/07/04 03:51:23;;;;;;;3.93;3.50;;;18.60;99.90;;;;;;7377916;19;20329;-72
2022/07/04 03:53:48;;;;;;;3.10;2.90;;;18.70;99.90;;;;;;7378068;19;20883;-73
2022/07/04 03:56:14;;;;;;;3.40;3.20;;;18.70;99.90;;;;;;7376814;19;20883;-74
2022/07/04 03:58:42;;;;;;;3.20;2.90;;;18.70;99.90;;;;;;7380121;19;20316;-74
2022/07/04 04:01:08;;;;;;;3.67;3.00;;;18.80;99.90;;;;;;7380761;19;20878;-73
2022/07/04 04:06:18;;;;;;;3.03;2.83;;;18.90;99.90;;;;;;7379306;19;20707;-75
2022/07/04 04:08:44;;;;;;;2.85;2.65;;;19.00;99.90;;;;;;7379584;19;20304;-73
2022/07/04 04:11:09;;;;;;;2.83;2.63;;;19.10;99.90;;;;;;7378681;19;20319;-74
2022/07/04 04:13:35;;;;;;;3.10;2.90;;;19.10;99.90;;;;;;7375810;19;20355;-76
2022/07/04 04:16:00;;;;;;;3.00;2.70;;;19.10;99.90;;;;;;7377912;19;20674;-73
2022/07/04 04:18:26;;;;;;;3.10;2.90;;;19.10;99.90;;;;;;7379101;19;20347;-74
2022/07/04 04:20:51;;;;;;;2.90;2.70;;;19.20;99.90;;;;;;7375166;19;20777;-73
2022/07/04 04:23:17;;;;;;;2.70;2.50;;;19.10;99.90;;;;;;7377851;19;20429;-73
2022/07/04 04:25:43;;;;;;;2.83;2.63;;;19.10;99.90;;;;;;7377248;19;20316;-73
2022/07/04 04:28:08;;;;;;;2.50;2.30;;;19.10;99.90;;;;;;7378669;19;20898;-72
2022/07/04 04:30:34;;;;;;;2.88;2.67;;;19.10;99.90;;;;;;7377979;19;20340;-73
2022/07/04 04:33:00;;;;;;;3.23;2.93;;;19.10;99.90;;;;;;7374406;19;20344;-73
2022/07/04 04:35:25;;;;;;;2.80;2.60;;;19.10;99.90;;;;;;7372946;19;20355;-75
2022/07/04 04:37:51;;;;;;;2.97;2.78;;;19.00;99.90;;;;;;7381431;19;20382;-73
2022/07/04 04:40:17;;;;;;;2.50;2.30;;;19.00;99.90;;;;;;7379646;19;20772;-73
2022/07/04 04:42:42;;;;;;;2.95;2.50;;;18.90;99.90;;;;;;7375136;19;20345;-74
2022/07/04 04:45:08;;;;;;;2.53;2.33;;;18.90;99.90;;;;;;7370217;19;20348;-74
2022/07/04 04:47:34;;;;;;;4.93;2.50;;;18.90;99.90;;;;;;7378482;19;20344;-73
2022/07/04 04:50:00;;;;;;;4.50;2.67;;;19.00;99.90;;;;;;7378452;19;20344;-73
2022/07/04 04:52:26;;;;;;;4.57;3.45;;;19.10;99.90;;;;;;7378260;19;21345;-73
2022/07/04 04:54:51;;;;;;;2.70;2.50;;;19.20;99.90;;;;;;7372265;19;20348;-73
2022/07/04 04:57:17;;;;;;;2.80;2.50;;;19.30;99.90;;;;;;7378822;19;20990;-73
2022/07/04 04:59:43;;;;;;;3.63;2.50;;;19.40;99.90;;;;;;7376134;19;20345;-75
2022/07/04 05:02:08;;;;;;;2.75;2.55;;;19.50;99.90;;;;;;7374147;19;20341;-74
2022/07/04 05:04:34;;;;;;;2.60;2.40;;;19.60;99.90;;;;;;7371157;19;20345;-73
2022/07/04 05:06:59;;;;;;;2.40;2.20;;;19.70;99.90;;;;;;7371754;19;20872;-74
2022/07/04 05:09:25;;;;;;;2.70;2.50;;;19.80;99.90;;;;;;7378001;19;20358;-74
2022/07/04 05:11:50;;;;;;;2.50;2.30;;;19.80;99.90;;;;;;7378420;19;20328;-74
2022/07/04 05:14:16;;;;;;;2.80;2.60;;;19.80;99.90;;;;;;7379153;19;20378;-74
2022/07/04 05:16:42;;;;;;;2.50;2.30;;;20.00;99.90;;;;;;7371107;19;20344;-77
2022/07/04 05:19:07;;;;;;;2.70;2.50;;;20.10;99.90;;;;;;7377689;19;20329;-74
2022/07/04 05:21:33;;;;;;;2.77;2.53;;;20.20;99.90;;;;;;7372504;19;20352;-76
2022/07/04 05:23:58;;;;;;;2.53;2.33;;;20.10;99.90;;;;;;7374487;19;20356;-75
2022/07/04 05:26:24;;;;;;;2.63;2.43;;;20.20;99.90;;;;;;7365762;19;20332;-75
2022/07/04 05:28:50;;;;;;;2.53;2.33;;;20.30;99.90;;;;;;7374801;19;20340;-76
2022/07/04 05:31:15;;;;;;;2.75;2.55;;;20.50;99.90;;;;;;7374221;19;20352;-73
2022/07/04 05:33:41;;;;;;;2.40;2.20;;;20.60;99.90;;;;;;7374238;19;20847;-75
2022/07/04 05:36:07;;;;;;;2.57;2.37;;;20.60;99.90;;;;;;7366429;19;20344;-73
2022/07/04 05:38:32;;;;;;;2.35;2.17;;;20.80;99.90;;;;;;7374209;19;20702;-74
2022/07/04 05:40:58;;;;;;;2.50;2.30;;;20.90;99.90;;;;;;7373282;19;20345;-74
2022/07/04 05:43:25;;;;;;;2.30;2.20;;;20.90;99.90;;;;;;7377234;19;20352;-75
2022/07/04 05:45:51;;;;;;;3.10;2.20;;;21.00;99.90;;;;;;7373758;19;20357;-74
2022/07/04 05:48:16;;;;;;;2.30;2.10;;;21.10;99.90;;;;;;7377685;19;20700;-76
2022/07/04 05:50:42;;;;;;;3.43;2.00;;;21.30;99.90;;;;;;7377131;19;20341;-75
2022/07/04 05:53:07;;;;;;;2.40;1.90;;;21.20;99.90;;;;;;7376960;19;20351;-74
2022/07/04 05:55:34;;;;;;;4.38;2.50;;;21.30;99.90;;;;;;7372568;19;20337;-73
2022/07/04 05:58:00;;;;;;;2.10;2.00;;;21.40;99.90;;;;;;7377541;19;20332;-75
2022/07/04 06:00:25;;;;;;;2.30;2.10;;;21.60;99.90;;;;;;7377230;19;20331;-73
2022/07/04 06:02:51;;;;;;;2.42;2.22;;;21.70;99.90;;;;;;7378552;19;20349;-75
2022/07/04 06:05:16;;;;;;;2.25;2.10;;;21.80;99.90;;;;;;7377744;19;20329;-75
2022/07/04 06:07:42;;;;;;;2.20;2.10;;;21.90;99.90;;;;;;7381142;19;20308;-73
2022/07/04 06:10:08;;;;;;;1.90;1.80;;;22.00;99.90;;;;;;7380664;19;20662;-75
2022/07/04 06:12:34;;;;;;;2.00;1.90;;;22.20;99.90;;;;;;7382076;19;20328;-74
2022/07/04 06:14:59;;;;;;;2.00;1.88;;;22.40;99.90;;;;;;7379257;19;20317;-76
2022/07/04 06:17:25;;;;;;;2.47;1.97;;;22.50;99.90;;;;;;7383244;19;20333;-79
2022/07/04 06:19:50;;;;;;;2.53;1.90;;;22.70;99.90;;;;;;7382399;19;20854;-76
2022/07/04 06:22:16;;;;;;;1.97;1.87;;;22.70;99.90;;;;;;7380531;19;20316;-74
2022/07/04 06:24:41;;;;;;;1.92;1.83;;;22.70;99.90;;;;;;7381691;19;20335;-77
2022/07/04 06:27:07;;;;;;;2.10;1.90;;;22.90;99.90;;;;;;7386690;19;20337;-77
2022/07/04 06:29:33;;;;;;;1.67;1.57;;;23.00;99.90;;;;;;7397780;19;20308;-74
2022/07/04 06:31:58;;;;;;;3.40;1.80;;;23.10;99.90;;;;;;7391813;19;20335;-73
2022/07/04 06:37:08;;;;;;;1.30;1.30;;;23.30;99.90;;;;;;7393400;19;20902;-74
2022/07/04 06:39:34;;;;;;;2.67;1.50;;;23.40;99.90;;;;;;7396860;19;20317;-75
2022/07/04 06:41:59;;;;;;;1.67;1.50;;;23.50;99.90;;;;;;7394058;19;20357;-75
2022/07/04 06:44:25;;;;;;;1.70;1.60;;;23.70;99.90;;;;;;7393775;19;20316;-75
2022/07/04 06:46:51;;;;;;;2.08;1.88;;;23.80;99.90;;;;;;7393315;19;20356;-79
2022/07/04 06:49:16;;;;;;;1.70;1.60;;;23.90;99.90;;;;;;7394387;19;20402;-77
2022/07/04 06:51:42;;;;;;;1.52;1.42;;;24.10;99.90;;;;;;7394506;19;20343;-76
2022/07/04 06:54:07;;;;;;;1.70;1.60;;;24.20;99.90;;;;;;7393964;19;20384;-77
2022/07/04 06:56:33;;;;;;;1.77;1.67;;;24.30;99.90;;;;;;7391803;19;20351;-74
2022/07/04 06:58:59;;;;;;;2.00;1.50;;;24.30;99.90;;;;;;7395038;19;20320;-77
2022/07/04 07:01:24;;;;;;;1.55;1.48;;;24.30;99.90;;;;;;7390596;19;20399;-76
2022/07/04 07:03:50;;;;;;;1.80;1.70;;;24.40;99.90;;;;;;7392195;19;20344;-77
2022/07/04 07:06:16;;;;;;;1.60;1.50;;;24.70;99.90;;;;;;7389796;19;20339;-74
2022/07/04 07:08:41;;;;;;;2.17;1.98;;;24.80;99.90;;;;;;7393164;19;20324;-74
2022/07/04 07:11:13;;;;;;;2.50;1.40;;;24.70;99.90;;;;;;7391128;19;20411;-77
2022/07/04 07:13:40;;;;;;;2.40;1.52;;;24.90;99.90;;;;;;7392203;19;20786;-76
2022/07/04 07:16:06;;;;;;;1.65;1.50;;;25.00;99.90;;;;;;7388445;19;20363;-74
2022/07/04 07:18:31;;;;;;;1.73;1.63;;;25.30;99.90;;;;;;7390084;19;20415;-77
2022/07/04 07:20:57;;;;;;;1.50;1.40;;;25.30;99.90;;;;;;7388513;19;20673;-75
2022/07/04 07:23:23;;;;;;;1.50;1.40;;;25.60;99.90;;;;;;7389812;19;20340;-74
2022/07/04 07:25:48;;;;;;;1.80;1.70;;;25.40;99.90;;;;;;7386432;19;20359;-75
2022/07/04 07:28:14;;;;;;;1.80;1.70;;;25.50;99.90;;;;;;7390985;19;20316;-78
2022/07/04 07:30:39;;;;;;;1.70;1.60;;;25.50;99.90;;;;;;7388082;19;20328;-75
2022/07/04 07:33:05;;;;;;;1.70;1.60;;;25.50;99.90;;;;;;7389559;19;20871;-78
2022/07/04 07:35:30;;;;;;;2.58;1.70;;;25.70;99.90;;;;;;7386721;19;20328;-73
2022/07/04 07:37:56;;;;;;;1.60;1.50;;;26.00;99.90;;;;;;7385565;19;20362;-74
2022/07/04 07:40:21;;;;;;;1.60;1.50;;;26.20;99.90;;;;;;7381619;19;20602;-74
2022/07/04 07:42:47;;;;;;;3.70;1.70;;;26.30;99.90;;;;;;7381729;19;20568;-74
2022/07/04 07:45:13;;;;;;;2.33;1.70;;;26.10;99.90;;;;;;7373895;19;20994;-76
2022/07/04 07:47:38;;;;;;;1.55;1.45;;;26.10;99.90;;;;;;7383480;19;20312;-75
2022/07/04 07:50:05;;;;;;;3.03;1.90;;;26.20;99.90;;;;;;7380967;19;20335;-74
2022/07/04 07:52:30;;;;;;;1.80;1.70;;;26.30;99.90;;;;;;7381036;19;20317;-75
2022/07/04 07:54:56;;;;;;;1.35;1.35;;;26.60;99.90;;;;;;7380005;19;20337;-74
2022/07/04 07:57:21;;;;;;;1.40;1.30;;;26.20;99.90;;;;;;7382506;19;20308;-74
2022/07/04 07:59:47;;;;;;;1.63;1.53;;;26.30;99.90;;;;;;7380642;19;20316;-73
2022/07/04 08:02:12;;;;;;;1.63;1.53;;;26.30;99.90;;;;;;7379391;19;20337;-74
2022/07/04 08:04:40;;;;;;;1.45;1.40;;;26.40;99.90;;;;;;7380122;19;20351;-73
2022/07/04 08:07:09;;;;;;;1.70;1.60;;;26.40;99.90;;;;;;7376375;19;20309;-75
2022/07/04 08:09:35;;;;;;;1.80;1.70;;;26.50;99.90;;;;;;7377576;19;20893;-74
2022/07/04 08:12:01;;;;;;;1.63;1.52;;;26.70;99.90;;;;;;7376616;19;20393;-73
2022/07/04 08:14:27;;;;;;;1.40;1.40;;;26.80;99.90;;;;;;7376936;19;20343;-74
2022/07/04 08:16:52;;;;;;;1.77;1.67;;;27.00;99.90;;;;;;7372916;19;20341;-74
2022/07/04 08:19:18;;;;;;;1.60;1.50;;;27.00;99.90;;;;;;7377921;19;20832;-74
2022/07/04 08:21:46;;;;;;;1.80;1.70;;;27.10;99.90;;;;;;7375921;19;20340;-74
2022/07/04 08:24:13;;;;;;;1.90;1.80;;;27.30;99.90;;;;;;7376633;19;20337;-74
2022/07/04 08:26:38;;;;;;;2.80;1.90;;;27.50;99.90;;;;;;7377150;19;20341;-74
2022/07/04 08:29:04;;;;;;;1.70;1.60;;;27.50;99.90;;;;;;7382015;19;20352;-74
2022/07/04 08:31:29;;;;;;;1.70;1.60;;;28.00;99.90;;;;;;7378776;19;20325;-74
2022/07/04 08:33:55;;;;;;;1.70;1.50;;;28.20;99.90;;;;;;7378871;19;20890;-74
2022/07/04 08:36:20;;;;;;;1.85;1.75;;;28.30;99.90;;;;;;7376899;19;20331;-73
2022/07/04 08:38:46;;;;;;;2.27;2.00;;;28.30;99.90;;;;;;7381509;19;20339;-74
2022/07/04 08:41:12;;;;;;;1.70;1.60;;;27.80;99.90;;;;;;7381377;19;20453;-72
2022/07/04 08:43:37;;;;;;;2.03;1.93;;;28.10;99.90;;;;;;7378337;19;20372;-72
2022/07/04 08:46:04;;;;;;;2.40;2.13;;;28.20;99.00;;;;;;7377244;19;20323;-72
2022/07/04 08:48:30;;;;;;;2.43;2.20;;;28.40;99.20;;;;;;7380160;19;20325;-72
2022/07/04 08:50:59;;;;;;;2.77;2.30;;;28.40;99.50;;;;;;7378937;19;20317;-73
2022/07/04 08:53:29;;;;;;;2.10;1.90;;;28.80;99.60;;;;;;7377445;19;20308;-72
2022/07/04 08:58:39;;;;;;;3.65;1.70;;;29.10;97.00;;;;;;7381197;19;20332;-72
2022/07/04 09:01:14;;;;;;;1.80;1.70;;;28.80;97.40;;;;;;7377797;19;20718;-72
2022/07/04 09:03:40;;;;;;;2.08;1.90;;;29.00;98.00;;;;;;7378833;19;20815;-72
2022/07/04 09:06:06;;;;;;;2.25;2.08;;;29.20;95.50;;;;;;7378842;19;20321;-72
2022/07/04 09:08:31;;;;;;;4.47;3.40;;;29.30;96.80;;;;;;7382297;19;20907;-72
2022/07/04 09:10:57;;;;;;;5.82;2.70;;;28.70;94.70;;;;;;7379899;19;20380;-72
2022/07/04 09:13:22;;;;;;;3.67;3.10;;;29.40;97.00;;;;;;7378277;19;20345;-72
2022/07/04 09:15:50;;;;;;;3.27;2.77;;;29.80;96.90;;;;;;7378962;19;20871;-72
2022/07/04 09:18:34;;;;;;;3.35;3.05;;;29.80;94.60;;;;;;7381365;19;20317;-72
2022/07/04 09:21:02;;;;;;;3.50;3.20;;;29.40;93.30;;;;;;7276594;19;2020069;-72
2022/07/04 09:23:54;;;;;;;3.70;3.40;;;29.60;94.00;;;;;;7375569;19;20376;-72
2022/07/04 09:26:20;;;;;;;3.50;3.20;;;29.80;93.60;;;;;;7376793;19;20301;-72
2022/07/04 09:28:54;;;;;;;2.72;2.42;;;29.70;92.90;;;;;;7379904;19;20308;-72
2022/07/04 09:31:24;;;;;;;3.27;2.33;;;29.60;92.60;;;;;;7377339;19;20337;-72
2022/07/04 09:33:54;;;;;;;3.10;2.20;;;29.60;93.20;;;;;;7377866;19;20337;-72
2022/07/04 09:36:21;;;;;;;2.63;2.40;;;29.70;91.20;;;;;;7380350;19;20306;-72
2022/07/04 09:39:20;;;;;;;4.25;2.75;;;29.40;92.70;;;;;;7380380;19;20332;-72
2022/07/04 09:41:52;;;;;;;3.25;2.60;;;29.30;91.00;;;;;;7277965;19;2004371;-72
2022/07/04 09:44:18;;;;;;;3.93;2.67;;;29.40;91.60;;;;;;7376326;19;20305;-72
2022/07/04 09:46:43;;;;;;;2.75;2.55;;;29.70;90.90;;;;;;7376357;19;20332;-72
2022/07/04 09:49:10;;;;;;;3.80;3.35;;;29.60;91.50;;;;;;7377697;19;20863;-73
2022/07/04 09:51:36;;;;;;;7.50;2.88;;;30.00;91.80;;;;;;7376138;19;20951;-72
2022/07/04 09:54:31;;;;;;;3.60;2.90;;;29.60;91.70;;;;;;7378361;19;20355;-72
2022/07/04 09:56:58;;;;;;;4.03;2.70;;;29.40;92.20;;;;;;7274657;19;2004301;-72
2022/07/04 09:59:24;;;;;;;4.10;2.90;;;29.70;93.00;;;;;;7378252;19;20809;-72
2022/07/04 10:01:50;;;;;;;2.60;2.40;;;30.30;91.80;;;;;;7375121;19;20665;-72
2022/07/04 10:04:15;;;;;;;2.50;2.30;;;30.20;90.80;;;;;;7376250;19;20328;-72
2022/07/04 10:06:42;;;;;;;2.23;2.03;;;30.70;91.20;;;;;;7376564;19;20665;-72
2022/07/04 10:09:13;;;;;;;2.60;2.28;;;30.70;88.30;;;;;;7379274;19;20333;-72
2022/07/04 10:11:40;;;;;;;2.30;1.80;;;30.50;91.10;;;;;;7377751;19;20325;-72
2022/07/04 10:14:06;;;;;;;2.20;2.00;;;30.80;90.50;;;;;;7376166;19;20329;-72
2022/07/04 10:16:32;;;;;;;3.40;1.98;;;30.80;90.20;;;;;;7375454;19;20361;-72
2022/07/04 10:18:57;;;;;;;2.20;2.00;;;31.20;90.90;;;;;;7377971;19;20337;-72
2022/07/04 10:21:23;;;;;;;2.00;1.90;;;30.80;89.40;;;;;;7377493;19;20840;-72
2022/07/04 10:23:50;;;;;;;2.50;1.80;;;30.90;89.90;;;;;;7373324;19;20478;-72
2022/07/04 10:26:18;;;;;;;1.80;1.70;;;31.30;90.40;;;;;;7376502;19;20300;-72
2022/07/04 10:28:44;;;;;;;1.70;1.60;;;31.50;89.20;;;;;;7379327;19;20380;-72
2022/07/04 10:31:09;;;;;;;3.63;2.30;;;31.40;85.90;;;;;;7376622;19;20320;-72
2022/07/04 10:33:35;;;;;;;3.63;2.67;;;30.30;82.40;;;;;;7373444;19;21413;-71
2022/07/04 10:36:05;;;;;;;3.57;2.80;;;30.70;87.70;;;;;;7375306;19;20340;-72
2022/07/04 10:38:31;;;;;;;3.03;2.63;;;30.60;85.60;;;;;;7378228;19;20668;-72
2022/07/04 10:40:57;;;;;;;2.50;2.30;;;31.30;86.90;;;;;;7375873;19;20382;-72
2022/07/04 10:43:40;;;;;;;4.70;2.35;;;31.70;82.80;;;;;;7374666;19;20309;-72
2022/07/04 10:46:15;;;;;;;2.20;2.10;;;32.00;81.30;;;;;;7274135;19;2004352;-73
2022/07/04 10:49:15;;;;;;;1.88;1.77;;;31.50;82.00;;;;;;7375970;19;21603;-72
2022/07/04 10:52:01;;;;;;;2.13;1.80;;;31.70;84.50;;;;;;7272803;19;2004427;-72
2022/07/04 10:54:31;;;;;;;2.08;1.80;;;31.40;83.40;;;;;;7272714;19;2019866;-72
2022/07/04 10:57:16;;;;;;;1.77;1.67;;;31.30;83.80;;;;;;7375781;19;20400;-72
2022/07/04 10:59:53;;;;;;;1.97;1.87;;;31.70;83.20;;;;;;7376772;19;20333;-72
2022/07/04 11:02:38;;;;;;;3.13;2.50;;;32.10;81.10;;;;;;7372698;19;20349;-72
2022/07/04 11:05:06;;;;;;;2.55;2.35;;;31.60;79.00;;;;;;7271409;19;2005391;-72
2022/07/04 11:07:38;;;;;;;3.80;2.72;;;32.10;81.10;;;;;;7379275;19;20411;-72
2022/07/04 11:10:12;;;;;;;3.80;2.65;;;31.60;78.00;;;;;;7378052;19;20357;-72
2022/07/04 11:12:53;;;;;;;3.08;2.75;;;32.20;81.00;;;;;;7371484;19;20348;-72
2022/07/04 11:15:26;;;;;;;3.57;2.63;;;32.30;78.50;;;;;;7383334;19;20325;-72
2022/07/04 11:17:51;;;;;;;2.75;2.50;;;32.00;79.50;;;;;;7382802;19;20312;-72
2022/07/04 11:20:18;;;;;;;2.30;2.03;;;31.90;79.50;;;;;;7381523;19;20349;-72
2022/07/04 11:22:43;;;;;;;2.43;2.10;;;32.00;80.20;;;;;;7383290;19;20415;-73
2022/07/04 11:25:11;;;;;;;2.33;2.13;;;33.10;82.70;;;;;;7381975;19;20830;-73
2022/07/04 11:27:39;;;;;;;2.30;2.10;;;33.50;74.70;;;;;;7383290;19;20663;-72
2022/07/04 11:30:06;;;;;;;1.38;1.30;;;33.50;77.10;;;;;;7381609;19;20329;-72
2022/07/04 11:32:32;;;;;;;1.60;1.50;;;33.70;72.40;;;;;;7378956;19;20749;-72
2022/07/04 11:34:58;;;;;;;1.60;1.50;;;33.30;73.00;;;;;;7378977;19;21012;-72
2022/07/04 11:37:24;;;;;;;1.50;1.40;;;32.20;71.80;;;;;;7383746;19;20418;-72
2022/07/04 11:39:53;;;;;;;1.50;1.40;;;31.70;74.60;;;;;;7386094;19;20336;-72
2022/07/04 11:45:05;;;;;;;4.65;2.67;;;32.60;78.60;;;;;;7277599;19;2005323;-72
2022/07/04 11:47:35;;;;;;;1.55;1.45;;;33.20;73.90;;;;;;7382809;19;20335;-73
2022/07/04 11:50:01;;;;;;;2.65;1.60;;;31.90;68.00;;;;;;7380558;19;20371;-73
2022/07/04 11:52:30;;;;;;;1.40;1.30;;;31.60;73.30;;;;;;7379270;19;20375;-72
2022/07/04 11:54:57;;;;;;;2.78;1.77;;;32.60;72.30;;;;;;7380155;19;20350;-72
2022/07/04 11:57:24;;;;;;;1.40;1.30;;;32.80;69.40;;;;;;7382888;19;20321;-73
2022/07/04 12:00:01;;;;;;;1.90;1.77;;;34.00;71.80;;;;;;7384661;19;20311;-72
2022/07/04 12:02:28;;;;;;;1.70;1.60;;;33.70;67.80;;;;;;7275430;19;2004481;-73
2022/07/04 12:04:54;;;;;;;1.50;1.40;;;33.70;69.30;;;;;;7380577;19;20466;-73
2022/07/04 12:07:22;;;;;;;1.87;1.27;;;34.40;68.10;;;;;;7380315;19;20344;-73
2022/07/04 12:09:48;;;;;;;1.70;1.10;;;34.20;66.00;;;;;;7382281;19;20411;-73
2022/07/04 12:12:15;;;;;;;1.20;1.10;;;34.10;66.10;;;;;;7378329;19;21907;-73
2022/07/04 12:14:48;;;;;;;1.35;1.25;;;34.50;67.60;;;;;;7380742;19;20340;-73
2022/07/04 12:17:14;;;;;;;1.10;1.10;;;34.30;65.40;;;;;;7378815;19;20440;-72
2022/07/04 12:19:53;;;;;;;1.23;1.13;;;34.60;66.50;;;;;;7382508;19;21263;-73
2022/07/04 12:22:32;;;;;;;5.38;1.50;;;34.20;65.80;;;;;;7378796;19;21364;-72
2022/07/04 12:24:58;;;;;;;1.45;1.35;;;34.50;68.00;;;;;;7277558;19;2004241;-72
2022/07/04 12:27:27;;;;;;;1.33;1.15;;;33.90;62.70;;;;;;7380700;19;20701;-73
2022/07/04 12:29:53;;;;;;;1.02;1.02;;;33.40;67.20;;;;;;7380376;19;21621;-72
2022/07/04 12:32:19;;;;;;;1.30;1.20;;;34.00;68.80;;;;;;7375799;19;20357;-73
2022/07/04 12:34:45;;;;;;;1.42;1.33;;;33.90;63.30;;;;;;7380076;19;20313;-73
2022/07/04 12:37:12;;;;;;;1.30;1.20;;;33.40;61.10;;;;;;7379204;19;20325;-73
2022/07/04 12:39:39;;;;;;;1.40;1.30;;;33.40;62.60;;;;;;7381398;19;20988;-73
2022/07/04 12:42:14;;;;;;;2.03;1.80;;;34.00;64.20;;;;;;7378393;19;20373;-73
2022/07/04 12:44:41;;;;;;;2.72;2.50;;;33.20;60.80;;;;;;7380786;19;20345;-72
2022/07/04 12:47:11;;;;;;;2.60;2.30;;;34.00;66.60;;;;;;7378859;19;21437;-72
2022/07/04 12:49:36;;;;;;;4.40;2.40;;;34.10;62.00;;;;;;7379732;19;20798;-73
2022/07/04 12:52:06;;;;;;;2.53;2.20;;;34.00;61.70;;;;;;7377844;19;20316;-72
2022/07/04 12:54:31;;;;;;;2.60;2.40;;;34.70;62.10;;;;;;7379852;19;21006;-73
2022/07/04 12:57:04;;;;;;;2.87;2.53;;;35.30;63.80;;;;;;7379886;19;20337;-73
2022/07/04 12:59:30;;;;;;;2.95;2.65;;;35.60;59.00;;;;;;7380654;19;20902;-73
2022/07/04 13:01:56;;;;;;;6.05;4.47;;;35.30;62.40;;;;;;7378934;19;20319;-73